< < Back
Terminal Aerodrome Forecast


Current Version              Previous Versions:   1  2  3  4  5  6  7  8  9  

Terminal Aerodrome Forecast

202
FTUS42 KTAE 071735
TAFVLD
TAF
KVLD 071735Z 0718/0818 36010G16KT P6SM SKC
     FM080100 00000KT P6SM SKC
     FM081500 24010G20KT P6SM SCT250=

Latest METAR

397
SAUS70 KWBC 080800 RRB
MTRVLD
METAR KVLD 080753Z AUTO 00000KT 10SM CLR 02/00 A3002 RMK AO2 SLP176
T00170000


USA.gov is the U.S. government's official web portal to all federal, state and local government web resources and services.